Meteo Giornale » Osservazioni meteo Italia » Aosta

ore: 19:20 - Osservazioni Meteo Aosta
Lat. 45° 44' N Lon. 7° 22' E Alt. 546 metri s.l.m.

sereno Europe/Rome

19 °C

Sereno

Temp. 24 Ore

2 °C

24 °C

Ovest

14.8 Km/h

Dew point -6 °C

Umidità 17 %

Visibilità  10 Km

Il sole sorge alle ore 06:23

Il sole tramonta alle ore 18:49

Data e Ora Cielo e Fenomeni T °C DP °C Um. % Pres. hPa Vis. km Vento km/h
Ieri h: 19:20 sereno Sereno 19 -6 17 1018 10 O 14.8
Ieri h: 18:50 sereno Sereno 20 -7 15 1018 10 O 16.7
Ieri h: 18:20 sereno Sereno 21 -6 15 1018 10 O 14.8
Ieri h: 17:50 sereno Sereno 23 -6 13 1018 10 O/SO 31.5
Ieri h: 16:50 sereno Sereno 23 -6 13 1018 10 O/SO 27.8
Ieri h: 16:20 sereno Sereno 24 -5 14 1018 10 O/SO 29.6
Ieri h: 15:50 sereno Sereno 24 -7 12 1018 10 O/SO 29.6
Ieri h: 15:20 sereno Sereno 24 -5 14 1018 10 O/SO 27.8
Ieri h: 14:50 sereno Sereno 24 -4 15 1018 10 N 3.7
Ieri h: 14:20 sereno Sereno 23 -4 16 1019 10 N 5.5
Ieri h: 13:50 sereno Sereno 23 -2 18 1019 10 E 7.4
Ieri h: 13:20 sereno Sereno 22 -5 15 1020 10 N 3.7
Ieri h: 12:50 sereno Sereno 21 -2 21 1021 10 N 1.8
Ieri h: 12:20 sereno Sereno 20 -6 16 1022 10 N 1.8
Ieri h: 11:50 sereno Sereno 18 -4 22 1022 10 N 1.8
Ieri h: 11:20 sereno Sereno 17 -2 27 1023 10 N 1.8
Ieri h: 10:50 sereno Sereno 16 -2 29 1024 10 N 0
Ieri h: 10:20 sereno Sereno 15 -3 28 1024 10 N 1.8
Ieri h: 09:50 sereno Sereno 13 -2 35 1025 10 N 0
Ieri h: 09:20 sereno Sereno 11 -2 40 1025 10 N 3.7
Ieri h: 08:50 sereno Sereno 9 -1 49 1026 10 N 3.7
Ieri h: 08:20 sereno Sereno 7 -1 56 1026 10 N 1.8
Ieri h: 07:50 sereno Sereno 6 -1 60 1026 10 N 1.8
Ieri h: 07:20 sereno Sereno 4 -3 60 1026 10 N 0
Ieri h: 06:50 sereno Sereno 2 -3 69 1026 10 N 0
Ieri h: 06:20 sereno Sereno 3 -3 64 1026 10 N 0